sensor_id;sensor_type;location;lat;lon;timestamp;temperature;humidity
7686;DHT22;3885;51.474;-2.576;2022-12-18T00:06:34;-4.50;99.90
7686;DHT22;3885;51.474;-2.576;2022-12-18T00:09:02;-4.50;99.90
7686;DHT22;3885;51.474;-2.576;2022-12-18T00:11:31;-4.50;99.90
7686;DHT22;3885;51.474;-2.576;2022-12-18T00:13:59;-4.50;99.90
7686;DHT22;3885;51.474;-2.576;2022-12-18T00:16:28;-4.50;99.90
7686;DHT22;3885;51.474;-2.576;2022-12-18T00:18:58;-4.50;99.90
7686;DHT22;3885;51.474;-2.576;2022-12-18T00:21:27;-4.50;99.90
7686;DHT22;3885;51.474;-2.576;2022-12-18T00:23:54;-4.50;99.90
7686;DHT22;3885;51.474;-2.576;2022-12-18T00:26:23;-4.50;99.90
7686;DHT22;3885;51.474;-2.576;2022-12-18T00:31:20;-4.50;99.90
7686;DHT22;3885;51.474;-2.576;2022-12-18T00:33:48;-4.50;99.90
7686;DHT22;3885;51.474;-2.576;2022-12-18T00:36:18;-4.50;99.90
7686;DHT22;3885;51.474;-2.576;2022-12-18T00:38:45;-4.50;99.90
7686;DHT22;3885;51.474;-2.576;2022-12-18T00:41:14;-4.50;99.90
7686;DHT22;3885;51.474;-2.576;2022-12-18T00:44:02;-4.40;99.90
7686;DHT22;3885;51.474;-2.576;2022-12-18T00:46:28;-4.50;99.90
7686;DHT22;3885;51.474;-2.576;2022-12-18T00:53:51;-4.50;99.90
7686;DHT22;3885;51.474;-2.576;2022-12-18T00:56:18;-4.50;99.90
7686;DHT22;3885;51.474;-2.576;2022-12-18T01:01:12;-4.50;99.90
7686;DHT22;3885;51.474;-2.576;2022-12-18T01:06:10;-4.50;99.90
7686;DHT22;3885;51.474;-2.576;2022-12-18T01:08:37;-4.50;99.90
7686;DHT22;3885;51.474;-2.576;2022-12-18T01:13:34;-4.50;99.90
7686;DHT22;3885;51.474;-2.576;2022-12-18T01:16:01;-4.50;99.90
7686;DHT22;3885;51.474;-2.576;2022-12-18T01:18:28;-4.50;99.90
7686;DHT22;3885;51.474;-2.576;2022-12-18T01:20:55;-4.50;99.90
7686;DHT22;3885;51.474;-2.576;2022-12-18T01:25:50;-4.40;99.90
7686;DHT22;3885;51.474;-2.576;2022-12-18T01:28:17;-4.40;99.90
7686;DHT22;3885;51.474;-2.576;2022-12-18T01:30:44;-4.40;99.90
7686;DHT22;3885;51.474;-2.576;2022-12-18T01:33:11;-4.40;99.90
7686;DHT22;3885;51.474;-2.576;2022-12-18T01:35:40;-4.40;99.90
7686;DHT22;3885;51.474;-2.576;2022-12-18T01:38:08;-4.40;99.90
7686;DHT22;3885;51.474;-2.576;2022-12-18T01:40:36;-4.40;99.90
7686;DHT22;3885;51.474;-2.576;2022-12-18T01:43:03;-4.40;99.90
7686;DHT22;3885;51.474;-2.576;2022-12-18T01:48:00;-4.40;99.90
7686;DHT22;3885;51.474;-2.576;2022-12-18T01:50:31;-4.50;99.90
7686;DHT22;3885;51.474;-2.576;2022-12-18T01:53:04;-4.50;99.90
7686;DHT22;3885;51.474;-2.576;2022-12-18T01:55:37;-4.50;99.90
7686;DHT22;3885;51.474;-2.576;2022-12-18T01:58:05;-4.40;99.90
7686;DHT22;3885;51.474;-2.576;2022-12-18T02:00:32;-4.50;99.90
7686;DHT22;3885;51.474;-2.576;2022-12-18T02:02:58;-4.40;99.90
7686;DHT22;3885;51.474;-2.576;2022-12-18T02:08:03;-4.40;99.90
7686;DHT22;3885;51.474;-2.576;2022-12-18T02:10:38;-4.40;99.90
7686;DHT22;3885;51.474;-2.576;2022-12-18T02:13:12;-4.40;99.90
7686;DHT22;3885;51.474;-2.576;2022-12-18T02:15:46;-4.40;99.90
7686;DHT22;3885;51.474;-2.576;2022-12-18T02:18:21;-4.40;99.90
7686;DHT22;3885;51.474;-2.576;2022-12-18T02:20:53;-4.40;99.90
7686;DHT22;3885;51.474;-2.576;2022-12-18T02:23:37;-4.40;99.90
7686;DHT22;3885;51.474;-2.576;2022-12-18T02:26:15;-4.40;99.90
7686;DHT22;3885;51.474;-2.576;2022-12-18T02:28:45;-4.30;99.90
7686;DHT22;3885;51.474;-2.576;2022-12-18T02:31:17;-4.30;99.90
7686;DHT22;3885;51.474;-2.576;2022-12-18T02:33:45;-4.30;99.90
7686;DHT22;3885;51.474;-2.576;2022-12-18T02:36:13;-4.20;99.90
7686;DHT22;3885;51.474;-2.576;2022-12-18T02:41:10;-4.20;99.90
7686;DHT22;3885;51.474;-2.576;2022-12-18T02:43:38;-4.20;99.90
7686;DHT22;3885;51.474;-2.576;2022-12-18T02:46:30;-4.10;99.90
7686;DHT22;3885;51.474;-2.576;2022-12-18T02:49:03;-4.00;99.90
7686;DHT22;3885;51.474;-2.576;2022-12-18T02:56:38;-3.90;99.90
7686;DHT22;3885;51.474;-2.576;2022-12-18T02:59:09;-3.80;99.90
7686;DHT22;3885;51.474;-2.576;2022-12-18T03:04:12;-3.70;99.90
7686;DHT22;3885;51.474;-2.576;2022-12-18T03:06:44;-3.70;99.90
7686;DHT22;3885;51.474;-2.576;2022-12-18T03:11:48;-3.60;99.90
7686;DHT22;3885;51.474;-2.576;2022-12-18T03:14:38;-3.50;99.90
7686;DHT22;3885;51.474;-2.576;2022-12-18T03:17:13;-3.50;99.90
7686;DHT22;3885;51.474;-2.576;2022-12-18T03:19:44;-3.40;99.90
7686;DHT22;3885;51.474;-2.576;2022-12-18T03:22:13;-3.40;99.90
7686;DHT22;3885;51.474;-2.576;2022-12-18T03:24:40;-3.30;99.90
7686;DHT22;3885;51.474;-2.576;2022-12-18T03:27:11;-3.30;99.90
7686;DHT22;3885;51.474;-2.576;2022-12-18T03:32:12;-3.10;99.90
7686;DHT22;3885;51.474;-2.576;2022-12-18T03:37:09;-3.00;99.90
7686;DHT22;3885;51.474;-2.576;2022-12-18T03:39:36;-2.90;99.90
7686;DHT22;3885;51.474;-2.576;2022-12-18T03:42:10;-2.90;99.90
7686;DHT22;3885;51.474;-2.576;2022-12-18T03:44:42;-2.90;99.90
7686;DHT22;3885;51.474;-2.576;2022-12-18T03:47:15;-2.80;99.90
7686;DHT22;3885;51.474;-2.576;2022-12-18T03:49:47;-2.80;99.90
7686;DHT22;3885;51.474;-2.576;2022-12-18T03:52:20;-2.70;99.90
7686;DHT22;3885;51.474;-2.576;2022-12-18T03:54:50;-2.70;99.90
7686;DHT22;3885;51.474;-2.576;2022-12-18T03:59:51;-2.60;99.90
7686;DHT22;3885;51.474;-2.576;2022-12-18T04:02:21;-2.60;99.90
7686;DHT22;3885;51.474;-2.576;2022-12-18T04:04:51;-2.50;99.90
7686;DHT22;3885;51.474;-2.576;2022-12-18T04:07:20;-2.50;99.90
7686;DHT22;3885;51.474;-2.576;2022-12-18T04:09:48;-2.40;99.90
7686;DHT22;3885;51.474;-2.576;2022-12-18T04:12:16;-2.40;99.90
7686;DHT22;3885;51.474;-2.576;2022-12-18T04:14:45;-2.30;99.90
7686;DHT22;3885;51.474;-2.576;2022-12-18T04:17:11;-2.30;99.90
7686;DHT22;3885;51.474;-2.576;2022-12-18T04:19:38;-2.20;99.90
7686;DHT22;3885;51.474;-2.576;2022-12-18T04:22:05;-2.10;99.90
7686;DHT22;3885;51.474;-2.576;2022-12-18T04:24:32;-2.00;99.90
7686;DHT22;3885;51.474;-2.576;2022-12-18T04:26:59;-1.80;99.90
7686;DHT22;3885;51.474;-2.576;2022-12-18T04:29:27;-1.50;99.90
7686;DHT22;3885;51.474;-2.576;2022-12-18T04:31:55;-1.10;99.90
7686;DHT22;3885;51.474;-2.576;2022-12-18T04:34:22;-0.90;99.90
7686;DHT22;3885;51.474;-2.576;2022-12-18T04:36:49;-0.60;99.90
7686;DHT22;3885;51.474;-2.576;2022-12-18T04:39:16;-0.40;99.90
7686;DHT22;3885;51.474;-2.576;2022-12-18T04:41:43;-0.40;99.90
7686;DHT22;3885;51.474;-2.576;2022-12-18T04:44:10;-0.30;99.90
7686;DHT22;3885;51.474;-2.576;2022-12-18T04:46:37;-0.20;99.90
7686;DHT22;3885;51.474;-2.576;2022-12-18T04:49:05;0.00;99.90
7686;DHT22;3885;51.474;-2.576;2022-12-18T04:51:32;0.20;99.90
7686;DHT22;3885;51.474;-2.576;2022-12-18T04:53:59;0.40;99.90
7686;DHT22;3885;51.474;-2.576;2022-12-18T04:56:26;0.60;99.90
7686;DHT22;3885;51.474;-2.576;2022-12-18T04:58:53;0.70;99.90
7686;DHT22;3885;51.474;-2.576;2022-12-18T05:01:20;0.70;99.90
7686;DHT22;3885;51.474;-2.576;2022-12-18T05:03:47;0.80;99.90
7686;DHT22;3885;51.474;-2.576;2022-12-18T05:18:34;1.10;99.90
7686;DHT22;3885;51.474;-2.576;2022-12-18T05:21:01;1.20;99.90
7686;DHT22;3885;51.474;-2.576;2022-12-18T05:23:30;1.20;99.90
7686;DHT22;3885;51.474;-2.576;2022-12-18T05:28:27;1.30;99.90
7686;DHT22;3885;51.474;-2.576;2022-12-18T05:30:56;1.40;99.90
7686;DHT22;3885;51.474;-2.576;2022-12-18T05:33:25;1.40;99.90
7686;DHT22;3885;51.474;-2.576;2022-12-18T05:35:52;1.40;99.90
7686;DHT22;3885;51.474;-2.576;2022-12-18T05:38:20;1.50;99.90
7686;DHT22;3885;51.474;-2.576;2022-12-18T05:40:48;1.50;99.90
7686;DHT22;3885;51.474;-2.576;2022-12-18T05:48:12;1.60;99.90
7686;DHT22;3885;51.474;-2.576;2022-12-18T05:50:41;1.60;99.90
7686;DHT22;3885;51.474;-2.576;2022-12-18T05:53:09;1.60;99.90
7686;DHT22;3885;51.474;-2.576;2022-12-18T05:55:37;1.60;99.90
7686;DHT22;3885;51.474;-2.576;2022-12-18T06:00:36;1.70;99.90
7686;DHT22;3885;51.474;-2.576;2022-12-18T06:03:05;1.80;99.90
7686;DHT22;3885;51.474;-2.576;2022-12-18T06:05:35;1.80;99.90
7686;DHT22;3885;51.474;-2.576;2022-12-18T06:08:03;1.80;99.90
7686;DHT22;3885;51.474;-2.576;2022-12-18T06:12:57;1.80;99.90
7686;DHT22;3885;51.474;-2.576;2022-12-18T06:15:25;1.80;99.90
7686;DHT22;3885;51.474;-2.576;2022-12-18T06:20:19;1.90;99.90
7686;DHT22;3885;51.474;-2.576;2022-12-18T06:22:46;2.00;99.90
7686;DHT22;3885;51.474;-2.576;2022-12-18T06:25:14;2.00;99.90
7686;DHT22;3885;51.474;-2.576;2022-12-18T06:27:40;2.00;99.90
7686;DHT22;3885;51.474;-2.576;2022-12-18T06:30:09;2.00;99.90
7686;DHT22;3885;51.474;-2.576;2022-12-18T06:32:37;2.00;99.90
7686;DHT22;3885;51.474;-2.576;2022-12-18T06:35:05;2.10;99.90
7686;DHT22;3885;51.474;-2.576;2022-12-18T06:37:32;2.10;99.90
7686;DHT22;3885;51.474;-2.576;2022-12-18T06:39:59;2.10;99.90
7686;DHT22;3885;51.474;-2.576;2022-12-18T06:42:26;2.10;99.90
7686;DHT22;3885;51.474;-2.576;2022-12-18T06:44:54;2.10;99.90
7686;DHT22;3885;51.474;-2.576;2022-12-18T06:47:21;2.00;99.90
7686;DHT22;3885;51.474;-2.576;2022-12-18T06:49:50;2.00;99.90
7686;DHT22;3885;51.474;-2.576;2022-12-18T06:54:44;2.00;99.90
7686;DHT22;3885;51.474;-2.576;2022-12-18T06:57:11;1.90;99.90
7686;DHT22;3885;51.474;-2.576;2022-12-18T06:59:37;1.80;99.90
7686;DHT22;3885;51.474;-2.576;2022-12-18T07:02:04;1.80;99.90
7686;DHT22;3885;51.474;-2.576;2022-12-18T07:04:32;1.70;99.90
7686;DHT22;3885;51.474;-2.576;2022-12-18T07:07:00;1.60;99.90
7686;DHT22;3885;51.474;-2.576;2022-12-18T07:09:27;1.60;99.90
7686;DHT22;3885;51.474;-2.576;2022-12-18T07:11:54;1.60;99.90
7686;DHT22;3885;51.474;-2.576;2022-12-18T07:14:21;1.60;99.90
7686;DHT22;3885;51.474;-2.576;2022-12-18T07:16:48;1.60;99.90
7686;DHT22;3885;51.474;-2.576;2022-12-18T07:19:14;1.60;99.90
7686;DHT22;3885;51.474;-2.576;2022-12-18T07:21:41;1.60;99.90
7686;DHT22;3885;51.474;-2.576;2022-12-18T07:24:11;1.70;99.90
7686;DHT22;3885;51.474;-2.576;2022-12-18T07:26:38;1.60;99.90
7686;DHT22;3885;51.474;-2.576;2022-12-18T07:29:05;1.60;99.90
7686;DHT22;3885;51.474;-2.576;2022-12-18T07:31:32;1.60;99.90
7686;DHT22;3885;51.474;-2.576;2022-12-18T07:33:59;1.50;99.90
7686;DHT22;3885;51.474;-2.576;2022-12-18T07:36:25;1.50;99.90
7686;DHT22;3885;51.474;-2.576;2022-12-18T07:41:21;1.50;99.90
7686;DHT22;3885;51.474;-2.576;2022-12-18T07:43:48;1.50;99.90
7686;DHT22;3885;51.474;-2.576;2022-12-18T07:51:11;1.60;99.90
7686;DHT22;3885;51.474;-2.576;2022-12-18T07:56:07;1.60;99.90
7686;DHT22;3885;51.474;-2.576;2022-12-18T07:58:36;1.70;99.90
7686;DHT22;3885;51.474;-2.576;2022-12-18T08:01:04;1.70;99.90
7686;DHT22;3885;51.474;-2.576;2022-12-18T08:03:32;1.80;99.90
7686;DHT22;3885;51.474;-2.576;2022-12-18T08:06:00;2.00;99.90
7686;DHT22;3885;51.474;-2.576;2022-12-18T08:08:27;1.90;99.90
7686;DHT22;3885;51.474;-2.576;2022-12-18T08:10:54;2.00;99.90
7686;DHT22;3885;51.474;-2.576;2022-12-18T08:18:24;2.20;99.90
7686;DHT22;3885;51.474;-2.576;2022-12-18T08:20:51;2.20;99.90
7686;DHT22;3885;51.474;-2.576;2022-12-18T08:25:45;2.30;99.90
7686;DHT22;3885;51.474;-2.576;2022-12-18T08:28:12;2.40;99.90
7686;DHT22;3885;51.474;-2.576;2022-12-18T08:30:39;2.40;99.90
7686;DHT22;3885;51.474;-2.576;2022-12-18T08:35:35;2.50;99.90
7686;DHT22;3885;51.474;-2.576;2022-12-18T08:38:03;2.50;99.90
7686;DHT22;3885;51.474;-2.576;2022-12-18T08:40:30;2.50;99.90
7686;DHT22;3885;51.474;-2.576;2022-12-18T08:42:57;2.50;99.90
7686;DHT22;3885;51.474;-2.576;2022-12-18T08:45:42;2.50;99.90
7686;DHT22;3885;51.474;-2.576;2022-12-18T08:48:10;2.50;99.90
7686;DHT22;3885;51.474;-2.576;2022-12-18T08:53:04;2.60;99.90
7686;DHT22;3885;51.474;-2.576;2022-12-18T08:55:31;2.70;99.90
7686;DHT22;3885;51.474;-2.576;2022-12-18T09:00:25;2.70;99.90
7686;DHT22;3885;51.474;-2.576;2022-12-18T09:05:21;2.70;99.90
7686;DHT22;3885;51.474;-2.576;2022-12-18T09:07:48;2.70;99.90
7686;DHT22;3885;51.474;-2.576;2022-12-18T09:10:15;2.70;99.90
7686;DHT22;3885;51.474;-2.576;2022-12-18T09:12:42;2.70;99.90
7686;DHT22;3885;51.474;-2.576;2022-12-18T09:15:09;2.70;99.90
7686;DHT22;3885;51.474;-2.576;2022-12-18T09:17:36;2.70;99.90
7686;DHT22;3885;51.474;-2.576;2022-12-18T09:20:04;2.70;99.90
7686;DHT22;3885;51.474;-2.576;2022-12-18T09:22:32;2.80;99.90
7686;DHT22;3885;51.474;-2.576;2022-12-18T09:29:54;2.80;99.90
7686;DHT22;3885;51.474;-2.576;2022-12-18T09:32:21;2.80;99.90
7686;DHT22;3885;51.474;-2.576;2022-12-18T09:34:48;2.80;99.90
7686;DHT22;3885;51.474;-2.576;2022-12-18T09:37:15;2.90;99.90
7686;DHT22;3885;51.474;-2.576;2022-12-18T09:42:17;2.80;99.90
7686;DHT22;3885;51.474;-2.576;2022-12-18T09:44:50;2.80;99.90
7686;DHT22;3885;51.474;-2.576;2022-12-18T09:47:19;2.80;99.90
7686;DHT22;3885;51.474;-2.576;2022-12-18T09:49:51;2.90;99.90
7686;DHT22;3885;51.474;-2.576;2022-12-18T09:54:54;2.90;99.90
7686;DHT22;3885;51.474;-2.576;2022-12-18T09:57:23;3.00;99.90
7686;DHT22;3885;51.474;-2.576;2022-12-18T09:59:55;3.00;99.90
7686;DHT22;3885;51.474;-2.576;2022-12-18T10:02:24;3.00;99.90
7686;DHT22;3885;51.474;-2.576;2022-12-18T10:05:01;3.00;99.90
7686;DHT22;3885;51.474;-2.576;2022-12-18T10:10:06;3.00;99.90
7686;DHT22;3885;51.474;-2.576;2022-12-18T10:12:38;3.10;99.90
7686;DHT22;3885;51.474;-2.576;2022-12-18T10:15:12;3.10;99.90
7686;DHT22;3885;51.474;-2.576;2022-12-18T10:20:15;3.10;99.90
7686;DHT22;3885;51.474;-2.576;2022-12-18T10:22:53;3.10;99.90
7686;DHT22;3885;51.474;-2.576;2022-12-18T10:25:25;3.10;99.90
7686;DHT22;3885;51.474;-2.576;2022-12-18T10:30:23;3.20;99.90
7686;DHT22;3885;51.474;-2.576;2022-12-18T10:32:51;3.20;99.90
7686;DHT22;3885;51.474;-2.576;2022-12-18T10:35:21;3.20;99.90
7686;DHT22;3885;51.474;-2.576;2022-12-18T10:38:07;3.20;99.90
7686;DHT22;3885;51.474;-2.576;2022-12-18T10:43:22;3.30;99.90
7686;DHT22;3885;51.474;-2.576;2022-12-18T10:48:28;3.20;99.90
7686;DHT22;3885;51.474;-2.576;2022-12-18T10:50:56;3.30;99.90
7686;DHT22;3885;51.474;-2.576;2022-12-18T10:53:25;3.30;99.90
7686;DHT22;3885;51.474;-2.576;2022-12-18T10:55:55;3.40;99.90
7686;DHT22;3885;51.474;-2.576;2022-12-18T10:58:27;3.40;99.90
7686;DHT22;3885;51.474;-2.576;2022-12-18T11:01:07;3.50;99.90
7686;DHT22;3885;51.474;-2.576;2022-12-18T11:03:36;3.50;99.90
7686;DHT22;3885;51.474;-2.576;2022-12-18T11:06:06;3.50;99.90
7686;DHT22;3885;51.474;-2.576;2022-12-18T11:08:34;3.50;99.90
7686;DHT22;3885;51.474;-2.576;2022-12-18T11:11:03;3.50;99.90
7686;DHT22;3885;51.474;-2.576;2022-12-18T11:13:31;3.50;99.90
7686;DHT22;3885;51.474;-2.576;2022-12-18T11:18:28;3.50;99.90
7686;DHT22;3885;51.474;-2.576;2022-12-18T11:20:57;3.50;99.90
7686;DHT22;3885;51.474;-2.576;2022-12-18T11:28:41;3.60;99.90
7686;DHT22;3885;51.474;-2.576;2022-12-18T11:31:28;3.60;99.90
7686;DHT22;3885;51.474;-2.576;2022-12-18T11:34:00;3.70;99.90
7686;DHT22;3885;51.474;-2.576;2022-12-18T11:36:31;3.70;99.90
7686;DHT22;3885;51.474;-2.576;2022-12-18T11:39:02;3.70;99.90
7686;DHT22;3885;51.474;-2.576;2022-12-18T11:44:22;3.70;99.90
7686;DHT22;3885;51.474;-2.576;2022-12-18T11:51:55;3.80;99.90
7686;DHT22;3885;51.474;-2.576;2022-12-18T11:54:22;3.80;99.90
7686;DHT22;3885;51.474;-2.576;2022-12-18T11:56:53;3.80;99.90
7686;DHT22;3885;51.474;-2.576;2022-12-18T12:01:59;3.80;99.90
7686;DHT22;3885;51.474;-2.576;2022-12-18T12:04:46;3.80;99.90
7686;DHT22;3885;51.474;-2.576;2022-12-18T12:07:24;3.90;99.90
7686;DHT22;3885;51.474;-2.576;2022-12-18T12:10:05;3.90;99.90
7686;DHT22;3885;51.474;-2.576;2022-12-18T12:12:43;3.90;99.90
7686;DHT22;3885;51.474;-2.576;2022-12-18T12:17:56;4.00;99.90
7686;DHT22;3885;51.474;-2.576;2022-12-18T12:20:34;4.00;99.90
7686;DHT22;3885;51.474;-2.576;2022-12-18T12:23:12;4.00;99.90
7686;DHT22;3885;51.474;-2.576;2022-12-18T12:30:51;4.20;99.90
7686;DHT22;3885;51.474;-2.576;2022-12-18T12:33:32;4.20;99.90
7686;DHT22;3885;51.474;-2.576;2022-12-18T12:41:06;4.30;99.90
7686;DHT22;3885;51.474;-2.576;2022-12-18T12:46:25;4.40;99.90
7686;DHT22;3885;51.474;-2.576;2022-12-18T12:48:54;4.40;99.90
7686;DHT22;3885;51.474;-2.576;2022-12-18T12:51:25;4.50;99.90
7686;DHT22;3885;51.474;-2.576;2022-12-18T12:53:54;4.50;99.90
7686;DHT22;3885;51.474;-2.576;2022-12-18T12:56:25;4.60;99.90
7686;DHT22;3885;51.474;-2.576;2022-12-18T12:58:59;4.60;99.90
7686;DHT22;3885;51.474;-2.576;2022-12-18T13:01:35;4.60;99.90
7686;DHT22;3885;51.474;-2.576;2022-12-18T13:06:42;4.70;99.90
7686;DHT22;3885;51.474;-2.576;2022-12-18T13:09:10;4.70;99.90
7686;DHT22;3885;51.474;-2.576;2022-12-18T13:14:29;4.80;99.90
7686;DHT22;3885;51.474;-2.576;2022-12-18T13:20:10;4.80;99.90
7686;DHT22;3885;51.474;-2.576;2022-12-18T13:22:39;4.90;99.90
7686;DHT22;3885;51.474;-2.576;2022-12-18T13:28:10;5.00;99.90
7686;DHT22;3885;51.474;-2.576;2022-12-18T13:30:49;5.00;99.90
7686;DHT22;3885;51.474;-2.576;2022-12-18T13:33:47;5.10;99.90
7686;DHT22;3885;51.474;-2.576;2022-12-18T13:36:30;5.10;99.90
7686;DHT22;3885;51.474;-2.576;2022-12-18T13:42:30;5.20;99.90
7686;DHT22;3885;51.474;-2.576;2022-12-18T13:44:55;5.30;99.90
7686;DHT22;3885;51.474;-2.576;2022-12-18T13:49:54;5.40;99.90
7686;DHT22;3885;51.474;-2.576;2022-12-18T13:52:26;5.40;99.90
7686;DHT22;3885;51.474;-2.576;2022-12-18T13:54:56;5.50;99.90
7686;DHT22;3885;51.474;-2.576;2022-12-18T13:57:29;5.50;99.90
7686;DHT22;3885;51.474;-2.576;2022-12-18T14:02:26;5.60;99.90
7686;DHT22;3885;51.474;-2.576;2022-12-18T14:07:23;5.70;99.90
7686;DHT22;3885;51.474;-2.576;2022-12-18T14:09:53;5.80;99.90
7686;DHT22;3885;51.474;-2.576;2022-12-18T14:12:24;5.90;99.90
7686;DHT22;3885;51.474;-2.576;2022-12-18T14:15:20;5.90;99.90
7686;DHT22;3885;51.474;-2.576;2022-12-18T14:17:50;6.00;99.90
7686;DHT22;3885;51.474;-2.576;2022-12-18T14:20:17;6.00;99.90
7686;DHT22;3885;51.474;-2.576;2022-12-18T14:22:48;6.10;99.90
7686;DHT22;3885;51.474;-2.576;2022-12-18T14:27:45;6.20;99.90
7686;DHT22;3885;51.474;-2.576;2022-12-18T14:30:27;6.40;99.90
7686;DHT22;3885;51.474;-2.576;2022-12-18T14:33:05;6.60;99.90
7686;DHT22;3885;51.474;-2.576;2022-12-18T14:35:33;6.70;99.90
7686;DHT22;3885;51.474;-2.576;2022-12-18T14:38:20;6.90;99.90
7686;DHT22;3885;51.474;-2.576;2022-12-18T14:40:47;7.10;99.90
7686;DHT22;3885;51.474;-2.576;2022-12-18T14:43:18;7.20;99.90
7686;DHT22;3885;51.474;-2.576;2022-12-18T14:45:45;7.30;99.90
7686;DHT22;3885;51.474;-2.576;2022-12-18T14:48:16;7.50;99.90
7686;DHT22;3885;51.474;-2.576;2022-12-18T14:53:23;7.60;99.90
7686;DHT22;3885;51.474;-2.576;2022-12-18T14:55:50;7.70;99.90
7686;DHT22;3885;51.474;-2.576;2022-12-18T14:58:17;7.80;99.90
7686;DHT22;3885;51.474;-2.576;2022-12-18T15:00:45;7.90;99.90
7686;DHT22;3885;51.474;-2.576;2022-12-18T15:03:15;7.90;99.90
7686;DHT22;3885;51.474;-2.576;2022-12-18T15:05:44;8.00;99.90
7686;DHT22;3885;51.474;-2.576;2022-12-18T15:08:29;8.10;99.90
7686;DHT22;3885;51.474;-2.576;2022-12-18T15:10:56;8.10;99.90
7686;DHT22;3885;51.474;-2.576;2022-12-18T15:13:24;8.10;99.90
7686;DHT22;3885;51.474;-2.576;2022-12-18T15:15:52;8.10;99.90
7686;DHT22;3885;51.474;-2.576;2022-12-18T15:18:21;8.20;99.90
7686;DHT22;3885;51.474;-2.576;2022-12-18T15:20:51;8.20;99.90
7686;DHT22;3885;51.474;-2.576;2022-12-18T15:23:20;8.20;99.90
7686;DHT22;3885;51.474;-2.576;2022-12-18T15:25:55;8.30;99.90
7686;DHT22;3885;51.474;-2.576;2022-12-18T15:28:25;8.30;99.90
7686;DHT22;3885;51.474;-2.576;2022-12-18T15:31:17;8.30;99.90
7686;DHT22;3885;51.474;-2.576;2022-12-18T15:34:02;8.30;99.90
7686;DHT22;3885;51.474;-2.576;2022-12-18T15:36:32;8.40;99.90
7686;DHT22;3885;51.474;-2.576;2022-12-18T15:39:03;8.40;99.90
7686;DHT22;3885;51.474;-2.576;2022-12-18T15:41:32;8.40;99.90
7686;DHT22;3885;51.474;-2.576;2022-12-18T15:48:55;8.50;99.90
7686;DHT22;3885;51.474;-2.576;2022-12-18T15:51:24;8.40;99.90
7686;DHT22;3885;51.474;-2.576;2022-12-18T15:53:54;8.50;99.90
7686;DHT22;3885;51.474;-2.576;2022-12-18T15:56:22;8.50;99.90
7686;DHT22;3885;51.474;-2.576;2022-12-18T15:59:11;8.60;99.90
7686;DHT22;3885;51.474;-2.576;2022-12-18T16:01:39;8.50;99.90
7686;DHT22;3885;51.474;-2.576;2022-12-18T16:04:06;8.60;99.90
7686;DHT22;3885;51.474;-2.576;2022-12-18T16:06:33;8.60;99.90
7686;DHT22;3885;51.474;-2.576;2022-12-18T16:09:00;8.60;99.90
7686;DHT22;3885;51.474;-2.576;2022-12-18T16:11:28;8.70;99.90
7686;DHT22;3885;51.474;-2.576;2022-12-18T16:14:12;8.60;99.90
7686;DHT22;3885;51.474;-2.576;2022-12-18T16:16:39;8.60;99.90
7686;DHT22;3885;51.474;-2.576;2022-12-18T16:19:07;8.70;99.90
7686;DHT22;3885;51.474;-2.576;2022-12-18T16:21:34;8.60;99.90
7686;DHT22;3885;51.474;-2.576;2022-12-18T16:24:01;8.70;99.90
7686;DHT22;3885;51.474;-2.576;2022-12-18T16:26:28;8.70;99.90
7686;DHT22;3885;51.474;-2.576;2022-12-18T16:31:25;8.70;99.90
7686;DHT22;3885;51.474;-2.576;2022-12-18T16:34:10;8.70;99.90
7686;DHT22;3885;51.474;-2.576;2022-12-18T16:36:37;8.70;99.90
7686;DHT22;3885;51.474;-2.576;2022-12-18T16:39:04;8.60;99.90
7686;DHT22;3885;51.474;-2.576;2022-12-18T16:41:31;8.70;99.90
7686;DHT22;3885;51.474;-2.576;2022-12-18T16:43:58;8.80;99.90
7686;DHT22;3885;51.474;-2.576;2022-12-18T16:46:27;8.80;99.90
7686;DHT22;3885;51.474;-2.576;2022-12-18T16:48:54;8.80;99.90
7686;DHT22;3885;51.474;-2.576;2022-12-18T16:51:20;8.80;99.90
7686;DHT22;3885;51.474;-2.576;2022-12-18T16:53:47;8.90;99.90
7686;DHT22;3885;51.474;-2.576;2022-12-18T16:56:14;8.90;99.90
7686;DHT22;3885;51.474;-2.576;2022-12-18T16:58:41;8.90;99.90
7686;DHT22;3885;51.474;-2.576;2022-12-18T17:01:09;8.90;99.90
7686;DHT22;3885;51.474;-2.576;2022-12-18T17:03:37;8.90;99.90
7686;DHT22;3885;51.474;-2.576;2022-12-18T17:06:05;9.00;99.90
7686;DHT22;3885;51.474;-2.576;2022-12-18T17:08:32;9.00;99.90
7686;DHT22;3885;51.474;-2.576;2022-12-18T17:11:03;9.00;99.90
7686;DHT22;3885;51.474;-2.576;2022-12-18T17:13:30;9.00;99.90
7686;DHT22;3885;51.474;-2.576;2022-12-18T17:16:01;9.00;99.90
7686;DHT22;3885;51.474;-2.576;2022-12-18T17:18:29;9.00;99.90
7686;DHT22;3885;51.474;-2.576;2022-12-18T17:23:27;9.00;99.90
7686;DHT22;3885;51.474;-2.576;2022-12-18T17:25:54;9.10;99.90
7686;DHT22;3885;51.474;-2.576;2022-12-18T17:28:22;9.10;99.90
7686;DHT22;3885;51.474;-2.576;2022-12-18T17:30:48;9.10;99.90
7686;DHT22;3885;51.474;-2.576;2022-12-18T17:33:15;9.20;99.90
7686;DHT22;3885;51.474;-2.576;2022-12-18T17:35:43;9.20;99.90
7686;DHT22;3885;51.474;-2.576;2022-12-18T17:38:11;9.20;99.90
7686;DHT22;3885;51.474;-2.576;2022-12-18T17:40:38;9.30;99.90
7686;DHT22;3885;51.474;-2.576;2022-12-18T17:43:06;9.30;99.90
7686;DHT22;3885;51.474;-2.576;2022-12-18T17:45:34;9.40;99.90
7686;DHT22;3885;51.474;-2.576;2022-12-18T17:48:02;9.40;99.90
7686;DHT22;3885;51.474;-2.576;2022-12-18T17:50:29;9.40;99.90
7686;DHT22;3885;51.474;-2.576;2022-12-18T17:52:56;9.50;99.90
7686;DHT22;3885;51.474;-2.576;2022-12-18T17:55:25;9.50;99.90
7686;DHT22;3885;51.474;-2.576;2022-12-18T17:57:52;9.50;99.90
7686;DHT22;3885;51.474;-2.576;2022-12-18T18:00:19;9.60;99.90
7686;DHT22;3885;51.474;-2.576;2022-12-18T18:02:46;9.60;99.90
7686;DHT22;3885;51.474;-2.576;2022-12-18T18:05:13;9.70;99.90
7686;DHT22;3885;51.474;-2.576;2022-12-18T18:07:40;9.80;99.90
7686;DHT22;3885;51.474;-2.576;2022-12-18T18:10:08;9.80;99.90
7686;DHT22;3885;51.474;-2.576;2022-12-18T18:12:36;9.90;99.90
7686;DHT22;3885;51.474;-2.576;2022-12-18T18:17:48;9.90;99.90
7686;DHT22;3885;51.474;-2.576;2022-12-18T18:22:43;10.00;99.90
7686;DHT22;3885;51.474;-2.576;2022-12-18T18:25:10;10.00;99.90
7686;DHT22;3885;51.474;-2.576;2022-12-18T18:27:38;10.00;99.90
7686;DHT22;3885;51.474;-2.576;2022-12-18T18:35:05;10.10;99.90
7686;DHT22;3885;51.474;-2.576;2022-12-18T18:37:32;10.10;99.90
7686;DHT22;3885;51.474;-2.576;2022-12-18T18:40:00;10.20;99.90
7686;DHT22;3885;51.474;-2.576;2022-12-18T18:42:28;10.10;99.90
7686;DHT22;3885;51.474;-2.576;2022-12-18T18:49:53;10.20;99.90
7686;DHT22;3885;51.474;-2.576;2022-12-18T18:52:20;10.20;99.90
7686;DHT22;3885;51.474;-2.576;2022-12-18T18:57:15;10.30;99.90
7686;DHT22;3885;51.474;-2.576;2022-12-18T18:59:43;10.30;99.90
7686;DHT22;3885;51.474;-2.576;2022-12-18T19:02:13;10.30;99.90
7686;DHT22;3885;51.474;-2.576;2022-12-18T19:04:40;10.40;99.90
7686;DHT22;3885;51.474;-2.576;2022-12-18T19:07:07;10.30;99.90
7686;DHT22;3885;51.474;-2.576;2022-12-18T19:09:35;10.40;99.90
7686;DHT22;3885;51.474;-2.576;2022-12-18T19:12:02;10.40;99.90
7686;DHT22;3885;51.474;-2.576;2022-12-18T19:14:46;10.40;99.90
7686;DHT22;3885;51.474;-2.576;2022-12-18T19:17:15;10.50;99.90
7686;DHT22;3885;51.474;-2.576;2022-12-18T19:19:42;10.50;99.90
7686;DHT22;3885;51.474;-2.576;2022-12-18T19:22:09;10.50;99.90
7686;DHT22;3885;51.474;-2.576;2022-12-18T19:24:36;10.60;99.90
7686;DHT22;3885;51.474;-2.576;2022-12-18T19:27:03;10.60;99.90
7686;DHT22;3885;51.474;-2.576;2022-12-18T19:29:30;10.70;99.90
7686;DHT22;3885;51.474;-2.576;2022-12-18T19:31:57;10.70;99.90
7686;DHT22;3885;51.474;-2.576;2022-12-18T19:34:26;10.80;99.90
7686;DHT22;3885;51.474;-2.576;2022-12-18T19:39:20;10.90;99.90
7686;DHT22;3885;51.474;-2.576;2022-12-18T19:44:16;10.90;99.90
7686;DHT22;3885;51.474;-2.576;2022-12-18T19:46:43;11.00;99.90
7686;DHT22;3885;51.474;-2.576;2022-12-18T19:49:11;11.00;99.90
7686;DHT22;3885;51.474;-2.576;2022-12-18T19:51:39;11.00;99.90
7686;DHT22;3885;51.474;-2.576;2022-12-18T19:54:07;11.00;99.90